createdAt,value
2024-04-19T00:00:30.960Z,3.42
2024-04-19T00:03:34.125Z,3.10
2024-04-19T00:06:37.168Z,3.00
2024-04-19T00:09:40.071Z,2.88
2024-04-19T00:12:43.031Z,3.05
2024-04-19T00:15:46.007Z,3.08
2024-04-19T00:18:48.982Z,3.17
2024-04-19T00:21:51.856Z,2.80
2024-04-19T00:24:54.783Z,2.88
2024-04-19T00:27:57.869Z,3.63
2024-04-19T00:31:00.824Z,2.53
2024-04-19T00:34:03.772Z,3.15
2024-04-19T00:37:06.713Z,2.73
2024-04-19T00:40:09.895Z,2.60
2024-04-19T00:43:12.845Z,2.25
2024-04-19T00:46:16.651Z,2.78
2024-04-19T00:49:19.637Z,2.97
2024-04-19T00:52:22.592Z,2.80
2024-04-19T00:55:26.026Z,2.17
2024-04-19T00:58:29.619Z,2.35
2024-04-19T01:01:34.123Z,2.40
2024-04-19T01:04:37.234Z,2.53
2024-04-19T01:07:40.131Z,2.10
2024-04-19T01:10:43.878Z,2.67
2024-04-19T01:13:47.135Z,2.40
2024-04-19T01:16:50.009Z,2.65
2024-04-19T01:19:52.907Z,3.50
2024-04-19T01:23:16.974Z,2.97
2024-04-19T01:26:19.835Z,2.50
2024-04-19T01:29:22.719Z,2.20
2024-04-19T01:32:25.600Z,2.78
2024-04-19T01:35:28.466Z,2.72
2024-04-19T01:38:31.324Z,2.07
2024-04-19T01:41:34.249Z,2.53
2024-04-19T01:44:37.124Z,2.72
2024-04-19T01:47:41.062Z,2.50
2024-04-19T01:50:44.050Z,2.60
2024-04-19T01:53:46.983Z,3.43
2024-04-19T01:56:49.930Z,2.42
2024-04-19T01:59:52.777Z,2.90
2024-04-19T02:02:55.673Z,2.83
2024-04-19T02:06:09.026Z,3.05
2024-04-19T02:09:12.960Z,1.77
2024-04-19T02:12:15.882Z,2.90
2024-04-19T02:15:21.007Z,2.55
2024-04-19T02:18:24.018Z,2.90
2024-04-19T02:21:29.151Z,2.65
2024-04-19T02:24:33.127Z,2.50
2024-04-19T02:27:54.821Z,2.40
2024-04-19T02:31:02.212Z,2.53
2024-04-19T02:34:05.274Z,2.50
2024-04-19T02:37:08.346Z,2.25
2024-04-19T02:40:11.294Z,2.53
2024-04-19T02:43:14.219Z,2.67
2024-04-19T02:46:34.923Z,2.05
2024-04-19T02:49:37.841Z,2.20
2024-04-19T02:52:40.706Z,2.20
2024-04-19T02:55:43.697Z,2.10
2024-04-19T02:58:46.568Z,1.92
2024-04-19T03:01:49.669Z,2.45
2024-04-19T03:05:08.497Z,2.17
2024-04-19T03:08:11.631Z,2.15
2024-04-19T03:11:14.589Z,2.07
2024-04-19T03:14:17.522Z,2.10
2024-04-19T03:17:20.475Z,2.60
2024-04-19T03:20:23.406Z,2.63
2024-04-19T03:23:26.608Z,2.47
2024-04-19T03:26:29.445Z,2.40
2024-04-19T03:29:35.535Z,2.10
2024-04-19T03:32:38.587Z,2.13
2024-04-19T03:35:44.378Z,2.72
2024-04-19T03:38:49.315Z,2.72
2024-04-19T03:41:52.985Z,2.70
2024-04-19T03:45:14.654Z,2.25
2024-04-19T03:48:18.607Z,2.65
2024-04-19T03:51:21.939Z,2.88
2024-04-19T03:54:24.843Z,2.30
2024-04-19T03:57:27.826Z,2.77
2024-04-19T04:00:30.919Z,3.20
2024-04-19T04:03:33.880Z,3.15
2024-04-19T04:06:36.870Z,2.67
2024-04-19T04:09:39.815Z,3.55
2024-04-19T04:12:43.506Z,3.07
2024-04-19T04:15:47.178Z,3.05
2024-04-19T04:18:50.770Z,4.05
2024-04-19T04:21:53.780Z,2.22
2024-04-19T04:24:56.681Z,2.97
2024-04-19T04:27:59.585Z,2.60
2024-04-19T04:31:02.503Z,3.25
2024-04-19T04:34:05.399Z,3.80
2024-04-19T04:37:08.299Z,3.05
2024-04-19T04:40:11.615Z,3.22
2024-04-19T04:43:17.737Z,2.80
2024-04-19T04:46:20.602Z,3.75
2024-04-19T04:49:23.450Z,2.95
2024-04-19T04:52:28.399Z,3.17
2024-04-19T04:55:31.620Z,3.28
2024-04-19T04:58:34.503Z,3.67
2024-04-19T05:01:37.402Z,3.65
2024-04-19T05:04:43.929Z,3.97
2024-04-19T05:07:46.994Z,3.70
2024-04-19T05:10:49.844Z,3.97
2024-04-19T05:13:55.061Z,3.20
2024-04-19T05:16:58.880Z,3.33
2024-04-19T05:20:01.750Z,3.20
2024-04-19T05:23:04.886Z,3.17
2024-04-19T05:26:07.753Z,3.00
2024-04-19T05:29:11.239Z,2.97
2024-04-19T05:32:14.160Z,2.85
2024-04-19T05:35:17.053Z,3.85
2024-04-19T05:38:19.920Z,2.70
2024-04-19T05:41:22.893Z,3.53
2024-04-19T05:44:32.653Z,2.80
2024-04-19T05:47:35.855Z,3.25
2024-04-19T05:50:38.885Z,2.25
2024-04-19T05:53:41.755Z,1.92
2024-04-19T05:56:44.623Z,3.50
2024-04-19T05:59:47.550Z,2.63
2024-04-19T06:02:50.494Z,2.88
2024-04-19T06:05:53.400Z,2.60
2024-04-19T06:08:56.321Z,2.60
2024-04-19T06:12:02.767Z,2.92
2024-04-19T06:15:06.095Z,2.50
2024-04-19T06:18:10.589Z,2.92
2024-04-19T06:21:13.856Z,2.67
2024-04-19T06:24:18.552Z,2.60
2024-04-19T06:27:22.587Z,2.60
2024-04-19T06:30:27.228Z,2.13
2024-04-19T06:33:30.142Z,3.22
2024-04-19T06:36:33.139Z,2.03
2024-04-19T06:39:38.836Z,2.60
2024-04-19T06:42:44.691Z,2.67
2024-04-19T06:45:47.802Z,2.87
2024-04-19T06:48:51.118Z,2.20
2024-04-19T06:51:56.494Z,2.47
2024-04-19T06:54:59.426Z,2.47
2024-04-19T06:58:02.492Z,2.50
2024-04-19T07:01:16.360Z,2.03
2024-04-19T07:04:21.614Z,1.95
2024-04-19T07:07:24.694Z,2.50
2024-04-19T07:10:27.989Z,2.28
2024-04-19T07:13:31.708Z,2.45
2024-04-19T07:16:36.126Z,2.67
2024-04-19T07:19:39.159Z,1.63
2024-04-19T07:22:42.055Z,1.50
2024-04-19T07:25:45.122Z,1.77
2024-04-19T07:28:48.028Z,1.90
2024-04-19T07:31:51.024Z,2.27
2024-04-19T07:34:53.894Z,1.80
2024-04-19T07:37:56.795Z,2.42
2024-04-19T07:41:06.090Z,1.60
2024-04-19T07:44:09.515Z,1.75
2024-04-19T07:47:12.397Z,1.90
2024-04-19T07:50:15.306Z,2.25
2024-04-19T07:53:21.110Z,1.70
2024-04-19T07:56:25.847Z,1.90
2024-04-19T07:59:28.715Z,1.67
2024-04-19T08:02:32.242Z,1.60
2024-04-19T08:05:35.110Z,1.63
2024-04-19T08:08:37.971Z,1.20
2024-04-19T08:11:40.938Z,0.98
2024-04-19T08:14:43.795Z,1.05
2024-04-19T08:17:46.702Z,1.10
2024-04-19T08:20:49.634Z,1.38
2024-04-19T08:23:55.051Z,0.80
2024-04-19T08:26:58.281Z,0.60
2024-04-19T08:30:01.875Z,0.75
2024-04-19T08:33:06.844Z,0.70
2024-04-19T08:36:09.820Z,0.52
2024-04-19T08:39:12.716Z,0.75
2024-04-19T08:42:17.884Z,0.65
2024-04-19T08:45:22.496Z,1.00
2024-04-19T08:48:26.476Z,0.40
2024-04-19T08:51:44.536Z,0.70
2024-04-19T08:54:55.104Z,0.80
2024-04-19T08:57:58.757Z,1.25
2024-04-19T09:01:01.955Z,0.95
2024-04-19T09:04:05.200Z,1.10
2024-04-19T09:07:08.387Z,0.60
2024-04-19T09:10:12.657Z,0.70
2024-04-19T09:13:15.559Z,0.98
2024-04-19T09:16:18.610Z,0.88
2024-04-19T09:19:21.536Z,0.87
2024-04-19T09:22:24.517Z,1.10
2024-04-19T09:25:28.118Z,1.08
2024-04-19T09:28:31.607Z,0.80
2024-04-19T09:31:34.518Z,1.10
2024-04-19T09:34:39.783Z,0.60
2024-04-19T09:37:45.228Z,0.75
2024-04-19T09:40:48.642Z,0.95
2024-04-19T09:43:52.554Z,0.65
2024-04-19T09:47:04.184Z,0.57
2024-04-19T09:50:12.336Z,0.90
2024-04-19T09:53:24.384Z,0.60
2024-04-19T09:56:44.733Z,0.52
2024-04-19T09:59:50.108Z,0.70
2024-04-19T10:02:53.959Z,0.60
2024-04-19T10:05:57.699Z,0.70
2024-04-19T10:09:01.404Z,1.10
2024-04-19T10:12:05.966Z,0.98
2024-04-19T10:15:13.055Z,1.00
2024-04-19T10:18:17.348Z,0.73
2024-04-19T10:21:20.375Z,0.93
2024-04-19T10:24:23.942Z,0.60
2024-04-19T10:27:29.078Z,0.52
2024-04-19T10:30:36.758Z,1.02
2024-04-19T10:33:43.511Z,0.73
2024-04-19T10:36:47.506Z,0.70
2024-04-19T10:39:50.520Z,0.70
2024-04-19T10:43:05.948Z,0.65
2024-04-19T10:46:11.806Z,0.80
2024-04-19T10:49:22.167Z,0.70
2024-04-19T10:52:27.654Z,0.97
2024-04-19T10:55:30.699Z,0.70
2024-04-19T10:58:33.691Z,1.08
2024-04-19T11:01:39.668Z,0.80
2024-04-19T11:04:45.777Z,1.02
2024-04-19T11:07:49.281Z,0.90
2024-04-19T11:10:52.770Z,0.90
2024-04-19T11:13:55.688Z,0.65
2024-04-19T11:16:58.921Z,0.73
2024-04-19T11:20:01.878Z,0.70
2024-04-19T11:23:05.504Z,0.87
2024-04-19T11:26:08.423Z,0.88
2024-04-19T11:29:13.128Z,0.95
2024-04-19T11:32:16.345Z,1.00
2024-04-19T11:35:19.757Z,1.20
2024-04-19T11:38:24.136Z,0.73
2024-04-19T11:41:27.084Z,1.10
2024-04-19T11:44:30.604Z,1.15
2024-04-19T11:47:33.588Z,1.10
2024-04-19T11:50:37.364Z,1.10
2024-04-19T11:53:42.034Z,1.00
2024-04-19T11:56:45.455Z,1.08
2024-04-19T11:59:48.951Z,1.10
2024-04-19T12:02:52.443Z,0.88
2024-04-19T12:05:55.362Z,0.90
2024-04-19T12:08:58.250Z,1.03
2024-04-19T12:12:37.324Z,1.00
2024-04-19T12:16:05.302Z,0.90
2024-04-19T12:18:50.840Z,1.10
2024-04-19T12:21:54.662Z,0.95
2024-04-19T12:24:58.880Z,1.13
2024-04-19T12:28:02.607Z,0.93
2024-04-19T12:31:05.896Z,1.10
2024-04-19T12:34:08.929Z,1.77
2024-04-19T12:37:12.176Z,0.70
2024-04-19T12:40:15.171Z,0.80
2024-04-19T12:43:18.174Z,0.73
2024-04-19T12:46:22.378Z,0.60
2024-04-19T12:49:25.320Z,0.90
2024-04-19T12:52:28.636Z,1.00
2024-04-19T12:55:32.444Z,0.97
2024-04-19T12:58:35.365Z,0.90
2024-04-19T13:01:38.503Z,0.98
2024-04-19T13:04:41.533Z,1.00
2024-04-19T13:07:44.504Z,0.90
2024-04-19T13:10:47.493Z,1.03
2024-04-19T13:13:54.707Z,0.70
2024-04-19T13:16:58.316Z,0.80
2024-04-19T13:20:01.327Z,1.10
2024-04-19T13:23:04.480Z,1.10
2024-04-19T13:26:07.372Z,1.00
2024-04-19T13:29:10.353Z,0.70
2024-04-19T13:32:13.238Z,1.50
2024-04-19T13:35:16.367Z,0.73
2024-04-19T13:38:20.594Z,0.90
2024-04-19T13:41:23.500Z,0.97
2024-04-19T13:44:26.460Z,1.30
2024-04-19T13:47:29.494Z,1.20
2024-04-19T13:50:32.397Z,0.68
2024-04-19T13:53:42.443Z,1.20
2024-04-19T13:56:45.909Z,0.90
2024-04-19T13:59:48.773Z,0.95
2024-04-19T14:02:51.678Z,1.02
2024-04-19T14:05:54.579Z,0.65
2024-04-19T14:08:57.452Z,1.13
2024-04-19T14:12:00.865Z,1.07
2024-04-19T14:15:03.903Z,0.85
2024-04-19T14:18:07.335Z,1.40
2024-04-19T14:21:10.671Z,1.67
2024-04-19T14:24:14.126Z,1.17
2024-04-19T14:27:17.033Z,1.23
2024-04-19T14:30:19.998Z,1.40
2024-04-19T14:33:22.954Z,1.75
2024-04-19T14:36:25.991Z,1.02
2024-04-19T14:39:28.912Z,1.30
2024-04-19T14:42:32.925Z,0.90
2024-04-19T14:45:36.118Z,0.90
2024-04-19T14:48:39.664Z,0.93
2024-04-19T14:51:42.905Z,0.57
2024-04-19T14:54:47.834Z,1.13
2024-04-19T14:57:52.450Z,0.63
2024-04-19T15:00:55.582Z,1.08
2024-04-19T15:03:58.646Z,0.98
2024-04-19T15:07:01.684Z,1.10
2024-04-19T15:10:04.921Z,1.10
2024-04-19T15:13:07.939Z,0.83
2024-04-19T15:16:11.067Z,0.95
2024-04-19T15:19:14.005Z,0.73
2024-04-19T15:22:16.907Z,0.60
2024-04-19T15:25:19.872Z,0.77
2024-04-19T15:28:22.911Z,0.60
2024-04-19T15:31:26.175Z,0.73
2024-04-19T15:34:41.496Z,1.20
2024-04-19T15:37:50.337Z,0.82
2024-04-19T15:40:53.277Z,1.70
2024-04-19T15:43:56.330Z,1.60
2024-04-19T15:46:59.336Z,0.88
2024-04-19T15:50:02.514Z,1.00
2024-04-19T15:53:05.748Z,0.52
2024-04-19T15:56:09.278Z,0.70
2024-04-19T15:59:12.116Z,1.20
2024-04-19T16:02:15.352Z,0.75
2024-04-19T16:05:18.373Z,0.40
2024-04-19T16:08:21.250Z,0.50
2024-04-19T16:11:24.231Z,0.43
2024-04-19T16:14:27.948Z,0.50
2024-04-19T16:17:30.899Z,0.40
2024-04-19T16:20:33.945Z,0.50
2024-04-19T16:23:37.523Z,0.60
2024-04-19T16:26:41.072Z,0.30
2024-04-19T16:29:44.940Z,1.13
2024-04-19T16:32:48.481Z,1.48
2024-04-19T16:36:00.729Z,0.95
2024-04-19T16:39:09.468Z,1.45
2024-04-19T16:42:12.359Z,1.75
2024-04-19T16:45:17.363Z,2.43
2024-04-19T16:48:22.402Z,6.28
2024-04-19T16:51:25.421Z,8.57
2024-04-19T16:54:28.367Z,8.52
2024-04-19T16:57:31.780Z,3.20
2024-04-19T17:00:34.960Z,1.77
2024-04-19T17:03:38.717Z,2.42
2024-04-19T17:06:42.449Z,4.53
2024-04-19T17:09:45.460Z,4.15
2024-04-19T17:12:48.452Z,3.03
2024-04-19T17:15:51.370Z,2.73
2024-04-19T17:18:54.296Z,3.28
2024-04-19T17:21:57.311Z,2.47
2024-04-19T17:25:00.848Z,2.03
2024-04-19T17:28:04.759Z,2.17
2024-04-19T17:31:08.737Z,2.20
2024-04-19T17:34:11.858Z,1.60
2024-04-19T17:37:14.887Z,2.25
2024-04-19T17:40:17.873Z,2.55
2024-04-19T17:43:20.755Z,2.55
2024-04-19T17:46:23.644Z,2.03
2024-04-19T17:49:26.515Z,1.90
2024-04-19T17:52:29.379Z,1.80
2024-04-19T17:55:32.279Z,1.83
2024-04-19T17:58:35.154Z,1.92
2024-04-19T18:01:38.185Z,1.47
2024-04-19T18:04:41.479Z,2.60
2024-04-19T18:07:44.432Z,2.60
2024-04-19T18:10:47.277Z,3.72
2024-04-19T18:13:50.973Z,3.08
2024-04-19T18:16:57.166Z,3.40
2024-04-19T18:20:03.138Z,3.22
2024-04-19T18:23:06.022Z,3.17
2024-04-19T18:26:09.371Z,3.03
2024-04-19T18:29:12.190Z,2.95
2024-04-19T18:32:15.075Z,2.53
2024-04-19T18:35:18.005Z,1.80
2024-04-19T18:38:20.841Z,1.80
2024-04-19T18:41:25.000Z,1.55
2024-04-19T18:44:30.301Z,1.60
2024-04-19T18:47:33.217Z,1.17
2024-04-19T18:50:36.428Z,1.10
2024-04-19T18:53:39.953Z,1.20
2024-04-19T18:56:43.156Z,1.40
2024-04-19T19:00:06.726Z,1.40
2024-04-19T19:03:29.663Z,1.00
2024-04-19T19:06:53.456Z,0.90
2024-04-19T19:10:17.669Z,1.10
2024-04-19T19:13:20.441Z,1.30
2024-04-19T19:16:23.270Z,1.90
2024-04-19T19:19:27.775Z,1.97
2024-04-19T19:22:30.933Z,1.70
2024-04-19T19:25:37.926Z,1.50
2024-04-19T19:28:41.123Z,1.60
2024-04-19T19:31:46.130Z,3.10
2024-04-19T19:34:50.209Z,2.60
2024-04-19T19:37:53.572Z,2.63
2024-04-19T19:40:57.581Z,2.83
2024-04-19T19:44:00.716Z,2.90
2024-04-19T19:47:04.509Z,2.78
2024-04-19T19:50:09.994Z,2.63
2024-04-19T19:53:12.834Z,3.03
2024-04-19T19:56:17.059Z,3.15
2024-04-19T19:59:39.362Z,2.50
2024-04-19T20:03:00.955Z,2.33
2024-04-19T20:06:04.021Z,3.60
2024-04-19T20:09:06.942Z,3.08
2024-04-19T20:12:09.934Z,2.55
2024-04-19T20:15:12.842Z,3.42
2024-04-19T20:18:18.371Z,4.70
2024-04-19T20:21:21.360Z,4.90
2024-04-19T20:24:24.323Z,4.60
2024-04-19T20:27:27.258Z,7.45
2024-04-19T20:30:31.403Z,4.80
2024-04-19T20:33:34.939Z,5.18
2024-04-19T20:36:37.919Z,5.40
2024-04-19T20:39:42.004Z,6.03
2024-04-19T20:42:44.945Z,6.57
2024-04-19T20:45:48.116Z,7.57
2024-04-19T20:48:51.123Z,8.30
2024-04-19T20:51:54.084Z,8.30
2024-04-19T20:54:57.052Z,8.13
2024-04-19T20:58:00.078Z,7.78
2024-04-19T21:01:12.307Z,5.60
2024-04-19T21:04:16.918Z,6.60
2024-04-19T21:07:20.201Z,5.47
2024-04-19T21:10:24.624Z,4.63
2024-04-19T21:13:27.588Z,4.25
2024-04-19T21:16:30.538Z,5.25
2024-04-19T21:19:33.720Z,6.10
2024-04-19T21:22:36.744Z,8.23
2024-04-19T21:25:41.354Z,8.65
2024-04-19T21:28:44.266Z,9.25
2024-04-19T21:31:47.163Z,9.45
2024-04-19T21:34:50.106Z,10.90
2024-04-19T21:37:52.984Z,11.53
2024-04-19T21:40:55.923Z,10.23
2024-04-19T21:43:58.825Z,9.90
2024-04-19T21:47:01.803Z,10.43
2024-04-19T21:50:04.884Z,13.43
2024-04-19T21:53:07.911Z,10.87
2024-04-19T21:56:11.876Z,9.75
2024-04-19T21:59:14.717Z,9.95
2024-04-19T22:02:17.943Z,7.50
2024-04-19T22:05:21.154Z,7.47
2024-04-19T22:08:24.016Z,6.97
2024-04-19T22:11:26.946Z,6.50
2024-04-19T22:14:29.873Z,6.93
2024-04-19T22:17:32.768Z,6.03
2024-04-19T22:20:35.744Z,4.95
2024-04-19T22:23:39.351Z,5.00
2024-04-19T22:26:42.378Z,5.28
2024-04-19T22:29:45.300Z,5.40
2024-04-19T22:32:48.251Z,5.43
2024-04-19T22:35:51.160Z,5.30
2024-04-19T22:38:54.539Z,5.40
2024-04-19T22:41:58.036Z,5.63
2024-04-19T22:45:00.889Z,5.32
2024-04-19T22:48:04.017Z,4.85
2024-04-19T22:51:07.479Z,5.38
2024-04-19T22:54:10.463Z,4.67
2024-04-19T22:57:13.381Z,4.13
2024-04-19T23:00:17.237Z,4.00
2024-04-19T23:03:20.096Z,3.38
2024-04-19T23:06:23.574Z,3.25
2024-04-19T23:09:26.536Z,2.90
2024-04-19T23:12:29.515Z,2.38
2024-04-19T23:15:34.464Z,3.22
2024-04-19T23:18:37.554Z,3.20
2024-04-19T23:21:40.496Z,3.17
2024-04-19T23:24:43.453Z,2.70
2024-04-19T23:27:46.377Z,3.30
2024-04-19T23:30:49.297Z,2.83
2024-04-19T23:33:52.324Z,2.65
2024-04-19T23:36:55.236Z,2.58
2024-04-19T23:39:58.301Z,3.33
2024-04-19T23:43:01.274Z,2.67
2024-04-19T23:46:04.700Z,3.08
2024-04-19T23:49:07.774Z,2.65
2024-04-19T23:52:10.825Z,2.60
2024-04-19T23:55:13.789Z,3.10
2024-04-19T23:58:16.700Z,3.25
